createdAt,value
2018-01-17T00:01:47.436Z,1.40
2018-01-17T00:04:14.174Z,1.40
2018-01-17T00:06:41.121Z,1.30
2018-01-17T00:09:07.717Z,1.40
2018-01-17T00:11:34.631Z,1.30
2018-01-17T00:14:01.257Z,1.30
2018-01-17T00:16:27.833Z,1.30
2018-01-17T00:18:54.699Z,1.40
2018-01-17T00:21:21.738Z,1.40
2018-01-17T00:23:49.482Z,1.40
2018-01-17T00:26:16.189Z,1.40
2018-01-17T00:28:42.853Z,1.30
2018-01-17T00:31:09.474Z,1.50
2018-01-17T00:33:36.404Z,1.40
2018-01-17T00:36:03.009Z,1.40
2018-01-17T00:38:30.001Z,1.40
2018-01-17T00:40:56.784Z,1.40
2018-01-17T00:43:23.557Z,1.40
2018-01-17T00:45:50.830Z,1.50
2018-01-17T00:48:20.100Z,1.70
2018-01-17T00:50:46.756Z,1.70
2018-01-17T00:53:13.409Z,1.70
2018-01-17T00:55:40.467Z,1.80
2018-01-17T00:58:07.073Z,1.80
2018-01-17T01:00:33.633Z,1.80
2018-01-17T01:03:00.170Z,1.90
2018-01-17T01:05:26.965Z,2.00
2018-01-17T01:07:53.823Z,2.00
2018-01-17T01:10:20.793Z,2.00
2018-01-17T01:12:48.457Z,2.00
2018-01-17T01:17:47.006Z,2.00
2018-01-17T01:20:13.942Z,1.90
2018-01-17T01:22:41.093Z,1.90
2018-01-17T01:25:07.720Z,1.90
2018-01-17T01:27:34.276Z,2.00
2018-01-17T01:30:00.813Z,2.00
2018-01-17T01:32:27.400Z,2.00
2018-01-17T01:34:54.158Z,2.00
2018-01-17T01:37:22.012Z,2.00
2018-01-17T01:39:49.785Z,2.00
2018-01-17T01:42:17.095Z,2.00
2018-01-17T01:44:44.578Z,2.00
2018-01-17T01:47:11.780Z,1.90
2018-01-17T01:49:38.478Z,2.00
2018-01-17T01:52:05.053Z,2.00
2018-01-17T01:54:31.729Z,2.00
2018-01-17T01:56:58.298Z,2.00
2018-01-17T01:59:25.116Z,2.00
2018-01-17T02:01:51.981Z,2.00
2018-01-17T02:04:20.120Z,2.00
2018-01-17T02:06:47.024Z,2.00
2018-01-17T02:09:13.674Z,2.00
2018-01-17T02:11:40.841Z,2.00
2018-01-17T02:14:07.828Z,2.10
2018-01-17T02:16:34.851Z,2.10
2018-01-17T02:19:01.470Z,2.10
2018-01-17T02:21:27.997Z,2.10
2018-01-17T02:23:55.100Z,2.10
2018-01-17T02:26:22.180Z,2.10
2018-01-17T02:28:49.332Z,2.10
2018-01-17T02:31:22.119Z,2.10
2018-01-17T02:33:49.811Z,2.00
2018-01-17T02:36:16.429Z,2.10
2018-01-17T02:38:43.053Z,2.20
2018-01-17T02:41:09.682Z,2.20
2018-01-17T02:43:36.233Z,2.20
2018-01-17T02:46:03.223Z,2.20
2018-01-17T02:48:29.864Z,2.20
2018-01-17T02:50:56.753Z,2.20
2018-01-17T02:53:23.621Z,2.20
2018-01-17T02:55:51.008Z,2.20
2018-01-17T02:58:18.452Z,2.30
2018-01-17T03:00:45.497Z,2.40
2018-01-17T03:03:12.366Z,2.40
2018-01-17T03:05:39.081Z,2.50
2018-01-17T03:08:05.811Z,2.50
2018-01-17T03:10:32.733Z,2.70
2018-01-17T03:12:59.360Z,2.70
2018-01-17T03:15:26.092Z,2.70
2018-01-17T03:17:53.681Z,2.70
2018-01-17T03:20:22.084Z,2.70
2018-01-17T03:22:50.531Z,2.60
2018-01-17T03:25:17.273Z,2.60
2018-01-17T03:27:44.140Z,2.60
2018-01-17T03:30:11.435Z,2.60
2018-01-17T03:32:38.065Z,2.60
2018-01-17T03:35:04.735Z,2.60
2018-01-17T03:37:31.301Z,2.60
2018-01-17T03:39:57.865Z,2.60
2018-01-17T03:42:24.564Z,2.60
2018-01-17T03:44:52.552Z,2.60
2018-01-17T03:47:20.410Z,2.60
2018-01-17T03:49:48.284Z,2.60
2018-01-17T03:52:15.141Z,2.60
2018-01-17T03:54:42.023Z,2.50
2018-01-17T03:57:09.093Z,2.50
2018-01-17T03:59:35.837Z,2.60
2018-01-17T04:02:02.404Z,2.60
2018-01-17T04:04:29.005Z,2.70
2018-01-17T04:06:56.197Z,2.70
2018-01-17T04:09:23.775Z,2.70
2018-01-17T04:11:52.174Z,2.80
2018-01-17T04:14:20.454Z,2.80
2018-01-17T04:16:47.643Z,2.80
2018-01-17T04:19:14.633Z,2.90
2018-01-17T04:21:41.831Z,2.90
2018-01-17T04:24:09.332Z,3.00
2018-01-17T04:26:35.944Z,3.00
2018-01-17T04:29:02.596Z,3.00
2018-01-17T04:31:29.145Z,3.00
2018-01-17T04:33:55.882Z,3.00
2018-01-17T04:36:23.177Z,2.90
2018-01-17T04:38:51.726Z,2.90
2018-01-17T04:41:20.753Z,2.90
2018-01-17T04:43:48.222Z,2.80
2018-01-17T04:46:15.357Z,2.80
2018-01-17T04:48:42.336Z,2.80
2018-01-17T04:51:09.301Z,2.80
2018-01-17T04:53:35.948Z,2.80
2018-01-17T04:56:02.496Z,2.80
2018-01-17T04:58:29.146Z,2.80
2018-01-17T05:00:55.918Z,2.80
2018-01-17T05:03:23.241Z,2.90
2018-01-17T05:05:52.692Z,2.90
2018-01-17T05:08:20.181Z,2.90
2018-01-17T05:10:47.103Z,2.90
2018-01-17T05:13:14.665Z,2.90
2018-01-17T05:15:41.923Z,2.90
2018-01-17T05:18:08.569Z,2.80
2018-01-17T05:20:35.190Z,2.80
2018-01-17T05:23:04.035Z,2.70
2018-01-17T05:25:34.592Z,2.70
2018-01-17T05:28:04.073Z,2.70
2018-01-17T05:30:31.769Z,2.70
2018-01-17T05:32:58.824Z,2.70
2018-01-17T05:35:25.501Z,2.70
2018-01-17T05:37:52.315Z,2.70
2018-01-17T05:40:19.389Z,2.70
2018-01-17T05:42:46.039Z,2.70
2018-01-17T05:45:12.658Z,2.70
2018-01-17T05:47:39.389Z,2.60
2018-01-17T05:50:06.513Z,2.60
2018-01-17T05:52:34.524Z,2.60
2018-01-17T05:55:02.610Z,2.60
2018-01-17T05:57:29.649Z,2.70
2018-01-17T05:59:56.225Z,2.70
2018-01-17T06:02:22.905Z,2.70
2018-01-17T06:04:49.569Z,2.70
2018-01-17T06:07:16.102Z,2.70
2018-01-17T06:09:42.688Z,2.70
2018-01-17T06:12:09.724Z,2.70
2018-01-17T06:14:37.189Z,2.60
2018-01-17T06:17:06.954Z,2.60
2018-01-17T06:19:34.708Z,2.60
2018-01-17T06:22:02.548Z,2.60
2018-01-17T06:24:29.341Z,2.60
2018-01-17T06:26:56.357Z,2.70
2018-01-17T06:29:23.346Z,2.70
2018-01-17T06:31:50.361Z,2.60
2018-01-17T06:34:17.043Z,2.60
2018-01-17T06:36:43.661Z,2.60
2018-01-17T06:39:10.341Z,2.60
2018-01-17T06:41:36.965Z,2.60
2018-01-17T06:44:03.849Z,2.60
2018-01-17T06:46:30.572Z,2.60
2018-01-17T06:48:57.238Z,2.60
2018-01-17T06:51:24.509Z,2.60
2018-01-17T06:53:51.346Z,2.50
2018-01-17T06:56:18.084Z,2.50
2018-01-17T06:58:44.604Z,2.50
2018-01-17T07:01:11.589Z,2.40
2018-01-17T07:03:38.217Z,2.40
2018-01-17T07:06:05.016Z,2.40
2018-01-17T07:08:32.079Z,2.40
2018-01-17T07:10:58.717Z,2.40
2018-01-17T07:13:25.382Z,2.20
2018-01-17T07:15:52.025Z,1.50
2018-01-17T07:18:18.649Z,1.10
2018-01-17T07:20:45.177Z,0.90
2018-01-17T07:23:11.770Z,0.80
2018-01-17T07:25:38.433Z,0.80
2018-01-17T07:28:05.476Z,0.70
2018-01-17T07:30:32.657Z,0.70
2018-01-17T07:32:59.288Z,0.70
2018-01-17T07:35:25.830Z,0.70
2018-01-17T07:37:52.457Z,0.70
2018-01-17T07:40:19.031Z,0.70
2018-01-17T07:42:45.597Z,0.70
2018-01-17T07:45:12.229Z,0.70
2018-01-17T07:47:38.801Z,0.70
2018-01-17T07:50:05.461Z,0.70
2018-01-17T07:52:32.487Z,0.70
2018-01-17T07:54:59.513Z,0.70
2018-01-17T07:57:26.050Z,0.70
2018-01-17T07:59:52.714Z,0.80
2018-01-17T08:02:19.296Z,0.70
2018-01-17T08:04:45.820Z,0.80
2018-01-17T08:07:12.384Z,0.80
2018-01-17T08:09:38.964Z,0.80
2018-01-17T08:12:06.261Z,0.80
2018-01-17T08:14:32.934Z,0.80
2018-01-17T08:16:59.525Z,0.70
2018-01-17T08:19:26.054Z,0.70
2018-01-17T08:21:52.669Z,0.70
2018-01-17T08:24:19.249Z,0.70
2018-01-17T08:26:45.785Z,0.70
2018-01-17T08:29:12.356Z,0.70
2018-01-17T08:31:38.933Z,0.70
2018-01-17T08:34:05.542Z,0.70
2018-01-17T08:36:32.165Z,0.60
2018-01-17T08:38:58.793Z,0.70
2018-01-17T08:41:25.326Z,0.70
2018-01-17T08:43:51.916Z,0.60
2018-01-17T08:46:18.537Z,0.60
2018-01-17T08:48:45.069Z,0.60
2018-01-17T08:51:11.733Z,0.70
2018-01-17T08:53:38.333Z,0.70
2018-01-17T08:56:04.905Z,0.70
2018-01-17T08:58:32.025Z,0.70
2018-01-17T09:00:58.665Z,0.80
2018-01-17T09:03:25.220Z,0.80
2018-01-17T09:05:51.816Z,0.80
2018-01-17T09:08:18.597Z,0.80
2018-01-17T09:10:45.685Z,0.80
2018-01-17T09:13:12.249Z,0.80
2018-01-17T09:15:38.809Z,0.90
2018-01-17T09:18:05.752Z,1.00
2018-01-17T09:20:32.433Z,0.90
2018-01-17T09:22:59.012Z,0.90
2018-01-17T09:25:25.549Z,1.00
2018-01-17T09:27:52.598Z,1.10
2018-01-17T09:30:19.277Z,1.10
2018-01-17T09:32:45.805Z,1.20
2018-01-17T09:35:12.368Z,1.20
2018-01-17T09:37:38.932Z,1.20
2018-01-17T09:40:05.505Z,1.20
2018-01-17T09:42:32.206Z,1.20
2018-01-17T09:44:58.792Z,1.30
2018-01-17T09:47:25.324Z,1.40
2018-01-17T09:49:51.911Z,1.40
2018-01-17T09:52:18.524Z,1.50
2018-01-17T09:54:45.065Z,1.50
2018-01-17T09:57:11.647Z,1.60
2018-01-17T09:59:38.837Z,1.70
2018-01-17T10:02:05.454Z,1.70
2018-01-17T10:04:32.152Z,1.70
2018-01-17T10:06:59.223Z,1.50
2018-01-17T10:09:25.760Z,1.60
2018-01-17T10:11:52.362Z,1.50
2018-01-17T10:14:19.020Z,1.40
2018-01-17T10:16:45.913Z,1.30
2018-01-17T10:19:12.576Z,1.30
2018-01-17T10:21:39.157Z,1.30
2018-01-17T10:24:06.094Z,1.30
2018-01-17T10:26:32.795Z,1.30
2018-01-17T10:28:59.405Z,1.40
2018-01-17T10:31:25.940Z,1.40
2018-01-17T10:33:52.584Z,1.50
2018-01-17T10:36:19.168Z,1.60
2018-01-17T10:38:46.074Z,1.80
2018-01-17T10:41:12.649Z,1.80
2018-01-17T10:43:39.213Z,1.90
2018-01-17T10:46:06.159Z,2.10
2018-01-17T10:48:33.183Z,2.20
2018-01-17T10:50:59.833Z,2.20
2018-01-17T10:53:26.453Z,2.30
2018-01-17T10:55:53.038Z,2.30
2018-01-17T10:58:19.649Z,2.20
2018-01-17T11:00:46.232Z,2.20
2018-01-17T11:03:12.839Z,2.20
2018-01-17T11:05:39.469Z,2.20
2018-01-17T11:08:06.414Z,2.40
2018-01-17T11:10:33.425Z,2.50
2018-01-17T11:13:00.392Z,2.50
2018-01-17T11:15:27.042Z,2.60
2018-01-17T11:17:53.624Z,2.60
2018-01-17T11:20:20.185Z,2.70
2018-01-17T11:22:47.137Z,2.60
2018-01-17T11:25:14.126Z,2.50
2018-01-17T11:27:40.718Z,2.50
2018-01-17T11:30:07.322Z,2.50
2018-01-17T11:32:33.924Z,2.40
2018-01-17T11:35:00.506Z,2.50
2018-01-17T11:37:27.053Z,2.50
2018-01-17T11:39:53.627Z,2.50
2018-01-17T11:42:20.292Z,2.60
2018-01-17T11:44:46.908Z,2.70
2018-01-17T11:47:13.562Z,2.70
2018-01-17T11:49:40.128Z,2.70
2018-01-17T11:52:06.765Z,2.60
2018-01-17T11:54:33.365Z,2.50
2018-01-17T11:57:00.332Z,2.30
2018-01-17T11:59:27.245Z,2.30
2018-01-17T12:01:53.828Z,2.30
2018-01-17T12:04:20.818Z,2.10
2018-01-17T12:06:47.389Z,2.10
2018-01-17T12:09:13.948Z,2.00
2018-01-17T12:11:40.508Z,1.90
2018-01-17T12:14:07.060Z,1.50
2018-01-17T12:16:34.044Z,0.90
2018-01-17T12:19:00.644Z,0.90
2018-01-17T12:21:27.344Z,0.80
2018-01-17T12:23:54.277Z,0.70
2018-01-17T12:26:20.876Z,0.70
2018-01-17T12:28:47.549Z,0.60
2018-01-17T12:31:14.200Z,0.50
2018-01-17T12:33:40.768Z,0.50
2018-01-17T12:36:07.321Z,0.50
2018-01-17T12:38:34.092Z,0.50
2018-01-17T12:41:01.310Z,0.60
2018-01-17T12:43:27.932Z,0.60
2018-01-17T12:45:54.506Z,0.70
2018-01-17T12:48:21.239Z,0.80
2018-01-17T12:50:47.774Z,1.00
2018-01-17T12:53:14.425Z,1.20
2018-01-17T12:55:41.004Z,1.20
2018-01-17T12:58:07.550Z,1.20
2018-01-17T13:00:34.172Z,1.20
2018-01-17T13:03:01.039Z,1.20
2018-01-17T13:05:27.584Z,1.30
2018-01-17T13:07:54.162Z,1.30
2018-01-17T13:10:20.770Z,1.40
2018-01-17T13:12:47.297Z,1.60
2018-01-17T13:15:13.864Z,1.80
2018-01-17T13:17:40.436Z,2.00
2018-01-17T13:20:06.993Z,2.10
2018-01-17T13:22:33.593Z,2.10
2018-01-17T13:25:00.248Z,2.10
2018-01-17T13:27:26.826Z,1.90
2018-01-17T13:58:52.613Z,1.70
2018-01-17T14:01:19.188Z,1.60
2018-01-17T14:03:46.534Z,1.80
2018-01-17T14:06:14.744Z,1.80
2018-01-17T14:08:44.709Z,1.80
2018-01-17T14:11:14.232Z,1.80
2018-01-17T14:13:42.311Z,1.70
2018-01-17T14:16:10.791Z,1.70
2018-01-17T14:18:39.549Z,1.50
2018-01-17T14:21:06.669Z,1.50
2018-01-17T14:23:35.885Z,1.30
2018-01-17T14:26:03.453Z,1.20
2018-01-17T14:28:30.637Z,1.10
2018-01-17T14:30:57.471Z,1.00
2018-01-17T14:33:24.024Z,0.90
2018-01-17T14:35:50.584Z,0.80
2018-01-17T14:38:20.213Z,0.90
2018-01-17T14:40:47.514Z,0.90
2018-01-17T14:43:15.706Z,0.90
2018-01-17T14:45:51.629Z,0.90
2018-01-17T14:48:20.825Z,0.90
2018-01-17T14:50:48.177Z,0.50
2018-01-17T14:53:16.069Z,0.50
2018-01-17T14:55:45.490Z,0.30
2018-01-17T14:58:16.408Z,0.10
2018-01-17T15:00:59.080Z,0.10
2018-01-17T15:03:26.032Z,-0.10
2018-01-17T15:05:52.652Z,-0.10
2018-01-17T15:08:30.777Z,-0.10
2018-01-17T15:10:57.493Z,-0.10
2018-01-17T15:13:24.090Z,0.00
2018-01-17T15:15:50.677Z,0.00
2018-01-17T15:18:18.708Z,0.10
2018-01-17T15:20:45.991Z,0.10
2018-01-17T15:23:14.936Z,0.10
2018-01-17T15:25:44.673Z,0.20
2018-01-17T15:28:13.926Z,0.30
2018-01-17T15:30:43.211Z,0.30
2018-01-17T15:33:13.437Z,0.40
2018-01-17T15:35:42.601Z,0.40
2018-01-17T15:38:13.550Z,0.30
2018-01-17T15:40:43.044Z,0.30
2018-01-17T15:43:13.413Z,0.00
2018-01-17T15:45:44.363Z,0.00
2018-01-17T15:48:14.028Z,-0.10
2018-01-17T15:50:43.961Z,-0.10
2018-01-17T15:53:13.842Z,-0.10
2018-01-17T15:55:53.807Z,-0.10
2018-01-17T15:58:22.532Z,-0.10
2018-01-17T16:00:49.482Z,0.00
2018-01-17T16:03:17.225Z,0.00
2018-01-17T16:05:45.750Z,0.00
2018-01-17T16:08:14.781Z,0.00
2018-01-17T16:10:44.209Z,0.00
2018-01-17T16:13:14.583Z,0.00
2018-01-17T16:15:43.445Z,0.10
2018-01-17T16:18:10.931Z,0.20
2018-01-17T16:20:43.041Z,0.30
2018-01-17T16:23:15.356Z,0.40
2018-01-17T16:25:44.046Z,0.50
2018-01-17T16:28:13.045Z,0.50
2018-01-17T16:30:43.736Z,0.60
2018-01-17T16:33:13.773Z,0.50
2018-01-17T16:35:42.422Z,0.50
2018-01-17T16:38:21.709Z,0.50
2018-01-17T16:40:48.704Z,0.50
2018-01-17T16:43:15.513Z,0.60
2018-01-17T16:45:42.939Z,0.60
2018-01-17T16:48:12.389Z,0.60
2018-01-17T16:50:42.007Z,0.60
2018-01-17T16:53:11.099Z,0.70
2018-01-17T16:55:43.825Z,0.60
2018-01-17T16:58:13.606Z,0.70
2018-01-17T17:00:43.174Z,0.70
2018-01-17T17:03:11.062Z,0.70
2018-01-17T17:05:39.557Z,0.70
2018-01-17T17:08:07.294Z,0.50
2018-01-17T17:10:35.430Z,0.50
2018-01-17T17:13:02.313Z,0.40
2018-01-17T17:15:28.989Z,0.30
2018-01-17T17:17:55.937Z,0.30
2018-01-17T17:20:22.857Z,0.30
2018-01-17T17:22:49.433Z,0.30
2018-01-17T17:25:16.421Z,0.30
2018-01-17T17:27:45.369Z,0.20
2018-01-17T17:30:16.409Z,0.20
2018-01-17T17:32:44.568Z,0.30
2018-01-17T17:35:14.725Z,0.30
2018-01-17T17:37:44.713Z,0.40
2018-01-17T17:40:15.123Z,0.40
2018-01-17T17:42:44.433Z,0.40
2018-01-17T17:45:14.060Z,0.50
2018-01-17T17:47:43.799Z,0.60
2018-01-17T17:50:13.850Z,0.50
2018-01-17T17:52:45.381Z,0.50
2018-01-17T17:55:16.327Z,0.40
2018-01-17T17:57:45.206Z,0.30
2018-01-17T18:00:13.814Z,0.30
2018-01-17T18:02:48.981Z,0.30
2018-01-17T18:05:16.458Z,0.30
2018-01-17T18:07:45.247Z,0.30
2018-01-17T18:10:14.863Z,0.40
2018-01-17T18:12:43.607Z,0.40
2018-01-17T18:15:13.994Z,0.10
2018-01-17T18:17:43.026Z,0.10
2018-01-17T18:20:12.065Z,0.00
2018-01-17T18:22:40.116Z,0.00
2018-01-17T18:25:10.228Z,0.00
2018-01-17T18:27:40.818Z,0.00
2018-01-17T18:30:10.237Z,0.00
2018-01-17T18:32:37.357Z,0.00
2018-01-17T18:35:04.513Z,-0.10
2018-01-17T18:37:31.550Z,0.00
2018-01-17T18:39:58.268Z,0.10
2018-01-17T18:42:24.957Z,0.00
2018-01-17T18:44:51.518Z,-0.10
2018-01-17T18:47:18.595Z,-0.20
2018-01-17T18:49:46.125Z,-0.30
2018-01-17T18:52:13.729Z,-0.30
2018-01-17T18:54:43.026Z,-0.40
2018-01-17T18:57:12.498Z,-0.40
2018-01-17T18:59:40.790Z,-0.40
2018-01-17T19:02:08.545Z,-0.40
2018-01-17T19:04:35.605Z,-0.40
2018-01-17T19:07:03.338Z,-0.20
2018-01-17T19:09:30.037Z,-0.20
2018-01-17T19:11:57.115Z,-0.10
2018-01-17T19:14:24.302Z,0.00
2018-01-17T19:16:50.846Z,0.00
2018-01-17T19:19:17.429Z,0.00
2018-01-17T19:21:44.984Z,0.00
2018-01-17T19:24:11.926Z,0.00
2018-01-17T19:26:40.303Z,0.00
2018-01-17T19:29:08.204Z,-0.10
2018-01-17T19:31:35.032Z,-0.10
2018-01-17T19:34:01.624Z,-0.10
2018-01-17T19:36:28.197Z,-0.10
2018-01-17T19:38:54.865Z,-0.10
2018-01-17T19:41:21.429Z,-0.10
2018-01-17T19:43:48.296Z,-0.10
2018-01-17T19:46:15.148Z,0.00
2018-01-17T19:48:43.811Z,-0.10
2018-01-17T19:51:13.069Z,-0.10
2018-01-17T19:53:42.085Z,-0.20
2018-01-17T19:56:10.562Z,-0.20
2018-01-17T19:58:39.308Z,-0.20
2018-01-17T20:01:06.176Z,-0.20
2018-01-17T20:03:33.864Z,-0.20
2018-01-17T20:06:00.552Z,-0.30
2018-01-17T20:08:27.269Z,-0.30
2018-01-17T20:10:53.978Z,-0.30
2018-01-17T20:13:21.752Z,-0.30
2018-01-17T20:15:49.525Z,-0.40
2018-01-17T20:18:17.621Z,-0.40
2018-01-17T20:20:44.822Z,-0.40
2018-01-17T20:23:14.009Z,-0.30
2018-01-17T20:25:41.545Z,-0.20
2018-01-17T20:28:10.868Z,-0.30
2018-01-17T20:30:38.773Z,-0.30
2018-01-17T20:33:05.829Z,-0.30
2018-01-17T20:35:33.093Z,-0.30
2018-01-17T20:38:00.667Z,-0.20
2018-01-17T20:40:27.581Z,-0.20
2018-01-17T20:42:55.053Z,-0.20
2018-01-17T20:45:21.585Z,-0.10
2018-01-17T20:47:48.161Z,-0.10
2018-01-17T20:50:16.499Z,0.00
2018-01-17T20:52:44.931Z,0.00
2018-01-17T20:55:13.852Z,0.00
2018-01-17T20:57:42.632Z,0.00
2018-01-17T21:00:12.010Z,0.10
2018-01-17T21:02:40.615Z,0.00
2018-01-17T21:05:09.918Z,-0.10
2018-01-17T21:07:36.791Z,-0.10
2018-01-17T21:10:05.125Z,-0.10
2018-01-17T21:12:32.059Z,-0.10
2018-01-17T21:14:59.320Z,-0.10
2018-01-17T21:17:25.925Z,-0.10
2018-01-17T21:19:52.481Z,-0.10
2018-01-17T21:22:19.068Z,-0.10
2018-01-17T21:24:46.010Z,-0.10
2018-01-17T21:27:14.953Z,0.00
2018-01-17T21:29:43.201Z,0.00
2018-01-17T21:32:12.816Z,0.00
2018-01-17T21:34:43.745Z,0.00
2018-01-17T21:37:14.193Z,0.10
2018-01-17T21:39:44.561Z,0.10
2018-01-17T21:42:20.149Z,0.10
2018-01-17T21:44:53.485Z,0.10
2018-01-17T21:47:20.045Z,0.10
2018-01-17T21:49:46.780Z,0.10
2018-01-17T21:52:15.285Z,0.30
2018-01-17T21:54:45.861Z,0.20
2018-01-17T21:57:14.565Z,0.30
2018-01-17T21:59:44.046Z,0.30
2018-01-17T22:02:15.040Z,0.30
2018-01-17T22:04:46.048Z,0.20
2018-01-17T22:07:15.889Z,0.20
2018-01-17T22:09:46.554Z,0.20
2018-01-17T22:12:15.607Z,0.20
2018-01-17T22:14:45.610Z,0.10
2018-01-17T22:17:16.031Z,0.10
2018-01-17T22:19:44.498Z,0.10
2018-01-17T22:22:20.956Z,0.10
2018-01-17T22:24:48.789Z,0.10
2018-01-17T22:27:16.529Z,0.10
2018-01-17T22:29:47.016Z,0.10
2018-01-17T22:32:16.061Z,0.20
2018-01-17T22:34:52.337Z,0.20
2018-01-17T22:37:20.764Z,0.20
2018-01-17T22:39:48.491Z,0.20
2018-01-17T22:42:16.021Z,0.20
2018-01-17T22:44:46.021Z,0.20
2018-01-17T22:47:17.119Z,0.20
2018-01-17T22:49:47.625Z,0.20
2018-01-17T22:52:16.587Z,0.30
2018-01-17T22:54:49.584Z,0.30
2018-01-17T22:57:18.754Z,0.30
2018-01-17T22:59:47.436Z,0.30
2018-01-17T23:02:19.484Z,0.30
2018-01-17T23:04:50.632Z,0.30
2018-01-17T23:07:18.931Z,0.30
2018-01-17T23:09:50.337Z,0.30
2018-01-17T23:12:20.633Z,0.40
2018-01-17T23:14:50.003Z,0.40
2018-01-17T23:17:17.641Z,0.40
2018-01-17T23:19:48.507Z,0.40
2018-01-17T23:22:18.045Z,0.40
2018-01-17T23:24:48.773Z,0.40
2018-01-17T23:27:18.064Z,0.40
2018-01-17T23:29:48.948Z,0.40
2018-01-17T23:32:19.513Z,0.40
2018-01-17T23:34:49.054Z,0.40
2018-01-17T23:37:18.136Z,0.40
2018-01-17T23:39:46.897Z,0.30
2018-01-17T23:42:18.239Z,0.30
2018-01-17T23:44:49.269Z,0.30
2018-01-17T23:47:20.822Z,0.40
2018-01-17T23:49:50.761Z,0.40
2018-01-17T23:52:20.545Z,0.50
2018-01-17T23:54:53.021Z,0.50
2018-01-17T23:57:20.824Z,0.50
2018-01-17T23:59:50.589Z,0.60
